Time;durP1;ratioP1;P1;durP2;ratioP2;P2;SDS_P1;SDS_P2;PMS_P1;PMS_P2;Temp;Humidity;BMP_temperature;BMP_pressure;BME280_temperature;BME280_humidity;BME280_pressure;Samples;Min_cycle;Max_cycle;Signal;HPM_P1;HPM_P2
2022/04/22 00:01:23;;;;;;;22.15;12.77;;;;;;;8.15;81.81;100890.91;4972057;28;20205;-88
2022/04/22 00:03:48;;;;;;;21.63;12.87;;;;;;;7.99;81.88;100870.03;4962819;28;20035;-88
2022/04/22 00:06:17;;;;;;;28.13;14.43;;;;;;;8.01;81.81;100880.59;4972116;28;20281;-89
2022/04/22 00:08:42;;;;;;;21.48;13.60;;;;;;;8.17;81.52;100896.97;4964631;28;20285;-90
2022/04/22 00:13:55;;;;;;;23.23;14.00;;;;;;;8.17;80.78;100899.66;4950182;28;20109;-87
2022/04/22 00:16:21;;;;;;;24.25;13.57;;;;;;;8.04;80.56;100864.25;4967154;28;20039;-89
2022/04/22 00:18:46;;;;;;;25.55;13.32;;;;;;;8.21;79.92;100882.28;4947548;28;20106;-89
2022/04/22 00:21:12;;;;;;;19.55;12.68;;;;;;;8.27;79.89;100888.94;4975162;28;20516;-89
2022/04/22 00:23:42;;;;;;;19.80;13.57;;;;;;;8.28;79.44;100890.63;4915801;28;20027;-88
2022/04/22 00:26:08;;;;;;;23.73;13.38;;;;;;;8.29;79.68;100892.31;4943628;28;20270;-89
2022/04/22 00:28:34;;;;;;;20.70;12.98;;;;;;;8.22;79.55;100873.28;4918660;28;20046;-90
2022/04/22 00:31:00;;;;;;;20.05;12.57;;;;;;;8.33;79.16;100882.16;4939452;29;20400;-89
2022/04/22 00:33:25;;;;;;;23.10;13.20;;;;;;;8.31;78.98;100878.78;4951846;28;20414;-89
2022/04/22 00:35:53;;;;;;;27.77;13.67;;;;;;;8.25;78.96;100877.50;4956048;29;20810;-90
2022/04/22 00:38:19;;;;;;;18.02;12.85;;;;;;;8.31;78.14;100878.78;4938119;28;20047;-89
2022/04/22 00:40:44;;;;;;;20.47;12.50;;;;;;;8.34;78.07;100883.88;4957618;29;20027;-90
2022/04/22 00:43:21;;;;;;;17.33;12.23;;;;;;;8.34;78.04;100878.50;4960998;28;20298;-89
2022/04/22 00:45:47;;;;;;;17.60;12.30;;;;;;;8.28;78.10;100879.06;4919795;29;20023;-89
2022/04/22 00:48:13;;;;;;;;;;;;;;;8.32;77.69;100885.84;4963809;28;20031;-89
2022/04/22 00:50:41;;;;;;;;;;;;;;;8.28;77.78;100877.22;4923088;29;20002;-89
2022/04/22 00:53:07;;;;;;;16.42;10.85;;;;;;;8.24;78.40;100875.81;4932951;29;19956;-89
2022/04/22 00:55:32;;;;;;;21.92;12.27;;;;;;;8.29;78.24;100878.94;4956782;28;20023;-89
2022/04/22 00:57:58;;;;;;;21.67;11.95;;;;;;;8.34;78.32;100873.16;4948513;29;20043;-90
2022/04/22 01:00:24;;;;;;;18.33;12.18;;;;;;;8.35;78.43;100880.19;4939354;28;20160;-89
2022/04/22 01:02:49;;;;;;;19.85;12.55;;;;;;;8.25;78.08;100864.97;4948756;29;20138;-89
2022/04/22 01:10:43;;;;;;;24.02;12.75;;;;;;;8.39;77.86;100870.88;4955247;28;20074;-89
2022/04/22 01:13:09;;;;;;;19.10;12.43;;;;;;;8.25;77.83;100859.59;4948213;28;20047;-88
2022/04/22 01:15:37;;;;;;;18.25;11.52;;;;;;;8.38;77.64;100880.75;4956808;28;20646;-89
2022/04/22 01:18:06;;;;;;;18.95;11.57;;;;;;;8.41;77.53;100879.66;4935084;28;20043;-89
2022/04/22 01:20:31;;;;;;;17.25;11.50;;;;;;;8.41;77.33;100868.94;4907974;29;20067;-90
2022/04/22 01:22:58;;;;;;;18.15;11.50;;;;;;;8.46;77.32;100872.03;4944690;28;20039;-89
2022/04/22 01:25:25;;;;;;;19.70;11.43;;;;;;;8.37;76.87;100854.94;4957850;28;20062;-90
2022/04/22 01:27:53;;;;;;;23.17;11.50;;;;;;;8.37;77.23;100868.34;4929492;28;20517;-89
2022/04/22 01:30:22;;;;;;;24.05;15.27;;;;;;;8.39;76.99;100854.81;4941934;28;20523;-89
2022/04/22 01:32:52;;;;;;;21.67;14.68;;;;;;;8.33;76.94;100860.72;4942992;28;20027;-89
2022/04/22 01:35:18;;;;;;;20.15;14.35;;;;;;;8.23;77.08;100845.50;4918524;29;20027;-89
2022/04/22 01:37:44;;;;;;;30.63;18.33;;;;;;;8.34;76.69;100857.06;4953598;28;20034;-89
2022/04/22 01:40:10;;;;;;;33.85;22.02;;;;;;;8.19;77.34;100854.81;4959086;28;20027;-88
2022/04/22 01:42:36;;;;;;;36.83;22.92;;;;;;;8.36;76.62;100865.81;4944842;28;20035;-88
2022/04/22 01:45:05;;;;;;;34.97;23.48;;;;;;;8.23;76.71;100842.81;4968763;28;20022;-88
2022/04/22 01:47:33;;;;;;;33.13;21.05;;;;;;;8.48;75.78;100870.06;4950048;28;20106;-88
2022/04/22 01:49:59;;;;;;;32.15;20.20;;;;;;;8.41;75.58;100852.88;4943716;29;20038;-90
2022/04/22 01:52:25;;;;;;;35.92;21.30;;;;;;;8.37;76.15;100840.72;4943065;28;20030;-90
2022/04/22 01:54:51;;;;;;;35.92;20.70;;;;;;;8.34;76.25;100831.13;4921598;29;20487;-89
2022/04/22 01:57:17;;;;;;;29.77;20.00;;;;;;;8.48;76.33;100861.19;4944965;28;20038;-88
2022/04/22 01:59:44;;;;;;;;;;;;;;;8.45;76.56;100864.97;4947590;29;20070;-87
2022/04/22 02:02:10;;;;;;;29.23;17.90;;;;;;;8.35;76.36;100853.41;4938643;29;19972;-90
2022/04/22 02:04:36;;;;;;;29.10;19.98;;;;;;;8.33;76.84;100845.50;4908526;29;20473;-89
2022/04/22 02:07:01;;;;;;;30.50;20.25;;;;;;;8.21;77.17;100852.81;4922867;28;20039;-90
2022/04/22 02:09:27;;;;;;;34.78;21.65;;;;;;;8.14;77.17;100841.00;4947637;29;20085;-89
2022/04/22 02:11:53;;;;;;;36.88;21.45;;;;;;;8.21;77.29;100841.28;4923892;28;20543;-88
2022/04/22 02:14:21;;;;;;;33.13;21.80;;;;;;;7.90;77.62;100819.16;4939619;29;20031;-88
2022/04/22 02:16:46;;;;;;;35.88;20.33;;;;;;;8.06;77.38;100832.81;4957002;28;20321;-88
2022/04/22 02:19:11;;;;;;;32.67;21.07;;;;;;;7.98;77.87;100846.06;4963493;28;20027;-88
2022/04/22 02:21:37;;;;;;;33.93;20.77;;;;;;;8.07;77.78;100842.53;4921957;28;20801;-88
2022/04/22 02:24:03;;;;;;;36.17;20.97;;;;;;;8.06;77.84;100843.53;4952423;28;20022;-89
2022/04/22 02:26:28;;;;;;;35.47;20.60;;;;;;;8.11;77.61;100843.13;4944075;28;20041;-88
2022/04/22 02:28:54;;;;;;;30.07;19.43;;;;;;;8.14;77.33;100841.00;4947956;29;20066;-89
2022/04/22 02:31:19;;;;;;;33.13;20.13;;;;;;;7.96;77.87;100840.00;4954761;28;20167;-88
2022/04/22 02:33:52;;;;;;;31.85;19.55;;;;;;;8.01;77.71;100838.59;4944711;28;20026;-89
2022/04/22 02:36:23;;;;;;;37.53;19.70;;;;;;;7.98;77.86;100851.41;4955599;28;20146;-89
2022/04/22 02:38:48;;;;;;;37.00;19.10;;;;;;;7.83;77.96;100830.41;4946917;29;20026;-89
2022/04/22 02:46:42;;;;;;;29.70;18.42;;;;;;;7.93;78.01;100849.16;4973312;28;20050;-87
2022/04/22 02:49:08;;;;;;;32.17;17.88;;;;;;;7.64;79.18;100849.09;4968085;28;20118;-89
2022/04/22 02:51:33;;;;;;;29.63;17.75;;;;;;;7.91;78.73;100863.66;4985822;28;20056;-89
2022/04/22 02:53:59;;;;;;;30.45;17.40;;;;;;;8.04;78.06;100861.56;4961525;28;20035;-87
2022/04/22 02:56:25;;;;;;;33.10;17.83;;;;;;;7.91;78.37;100835.03;4954644;28;20027;-90
2022/04/22 02:58:50;;;;;;;27.98;17.58;;;;;;;8.11;77.77;100851.16;4956090;28;20762;-89
2022/04/22 03:01:16;;;;;;;37.80;17.05;;;;;;;8.16;77.67;100859.59;4955513;28;20077;-89
2022/04/22 03:03:44;;;;;;;34.58;17.35;;;;;;;8.29;77.51;100854.81;4945083;28;20163;-90
2022/04/22 03:06:10;;;;;;;30.15;17.30;;;;;;;8.36;77.03;100858.63;4940840;28;20058;-88
2022/04/22 03:08:35;;;;;;;31.97;17.40;;;;;;;8.32;76.78;100849.16;4918778;28;20034;-90
2022/04/22 03:11:01;;;;;;;27.80;17.13;;;;;;;8.38;76.87;100850.44;4960996;29;20277;-90
2022/04/22 03:13:26;;;;;;;28.98;17.45;;;;;;;8.44;76.41;100837.34;4972658;28;20031;-88
2022/04/22 03:15:52;;;;;;;26.42;15.95;;;;;;;8.42;75.84;100828.59;4947019;29;20031;-89
2022/04/22 03:18:19;;;;;;;30.80;17.55;;;;;;;8.59;76.04;100845.81;4943130;28;20038;-89
2022/04/22 03:20:45;;;;;;;34.38;16.85;;;;;;;8.53;76.23;100835.66;4955869;28;20037;-88
2022/04/22 03:23:10;;;;;;;25.90;16.55;;;;;;;8.58;75.81;100838.75;4966562;28;20035;-89
2022/04/22 03:25:36;;;;;;;29.17;17.08;;;;;;;8.63;76.02;100846.34;4938725;29;20065;-89
2022/04/22 03:28:03;;;;;;;30.83;16.77;;;;;;;8.49;75.95;100826.19;4958634;28;20031;-89
2022/04/22 03:30:29;;;;;;;33.58;17.48;;;;;;;8.55;76.36;100844.41;4956167;28;20050;-89
2022/04/22 03:32:54;;;;;;;29.65;16.50;;;;;;;8.70;75.52;100843.94;4920303;28;20420;-90
2022/04/22 03:35:20;;;;;;;30.90;16.73;;;;;;;8.70;75.54;100846.63;4955655;28;20047;-90
2022/04/22 03:37:46;;;;;;;34.43;16.33;;;;;;;8.71;75.64;100850.97;4942662;28;20038;-89
2022/04/22 03:40:11;;;;;;;29.13;17.05;;;;;;;8.62;75.86;100861.59;4956702;28;20731;-89
2022/04/22 03:42:37;;;;;;;33.65;17.67;;;;;;;8.50;76.50;100864.56;4942670;28;20476;-88
2022/04/22 03:45:04;;;;;;;29.13;17.70;;;;;;;8.51;76.18;100860.91;4948643;28;20522;-89
2022/04/22 03:47:29;;;;;;;35.35;18.00;;;;;;;8.61;75.77;100864.41;4949051;28;20068;-89
2022/04/22 03:49:55;;;;;;;36.50;18.23;;;;;;;8.68;76.13;100856.63;4947411;28;20447;-89
2022/04/22 03:52:20;;;;;;;32.05;18.58;;;;;;;8.61;76.15;100838.44;4966705;28;20841;-89
2022/04/22 03:54:46;;;;;;;39.17;20.52;;;;;;;8.84;76.03;100843.47;4946470;29;20027;-89
2022/04/22 03:59:58;;;;;;;34.05;18.05;;;;;;;8.83;76.73;100839.13;4963232;28;20569;-89
2022/04/22 04:02:23;;;;;;;31.80;16.63;;;;;;;8.87;77.31;100837.81;4952600;28;20039;-89
2022/04/22 04:04:50;;;;;;;33.63;16.20;;;;;;;8.98;77.21;100839.50;4951256;28;20030;-90
2022/04/22 04:07:16;;;;;;;25.85;15.38;;;;;;;9.13;76.94;100831.81;4954678;28;20861;-90
2022/04/22 04:17:59;;;;;;;22.05;14.90;;;;;;;9.14;77.57;100823.63;4963850;28;20041;-89
2022/04/22 04:23:14;;;;;;;22.10;14.27;;;;;;;9.28;77.14;100819.59;4947628;29;20434;-89
2022/04/22 04:25:40;;;;;;;24.80;14.35;;;;;;;9.38;77.02;100836.50;4976231;28;20039;-89
2022/04/22 04:28:09;;;;;;;29.60;15.15;;;;;;;9.38;76.87;100825.75;4937656;28;20041;-90
2022/04/22 04:30:44;;;;;;;26.90;15.70;;;;;;;9.37;76.47;100810.66;4927636;29;20149;-89
2022/04/22 04:33:10;;;;;;;22.30;15.60;;;;;;;9.45;76.26;100817.97;4933369;28;20110;-89
2022/04/22 04:35:35;;;;;;;31.58;16.00;;;;;;;9.51;75.76;100815.53;4939812;29;20042;-90
2022/04/22 04:38:02;;;;;;;28.85;15.40;;;;;;;9.48;75.82;100831.94;4964739;28;20043;-89
2022/04/22 04:40:28;;;;;;;28.13;16.65;;;;;;;9.34;76.59;100839.63;4924712;29;20123;-89
2022/04/22 04:42:55;;;;;;;29.95;15.50;;;;;;;9.44;76.04;100827.03;4946233;28;20126;-89
2022/04/22 04:45:21;;;;;;;29.17;15.82;;;;;;;9.33;77.06;100835.25;4941770;29;20106;-90
2022/04/22 04:47:47;;;;;;;37.05;16.23;;;;;;;9.41;77.18;100830.84;4912805;28;20034;-88
2022/04/22 04:50:14;;;;;;;31.60;15.82;;;;;;;9.43;77.13;100834.19;4926165;29;20032;-89
2022/04/22 04:52:41;;;;;;;27.85;14.98;;;;;;;9.54;76.57;100851.13;4927344;29;20106;-89
2022/04/22 04:55:08;;;;;;;32.92;15.20;;;;;;;9.54;76.74;100843.06;4954696;29;20050;-90
2022/04/22 04:57:33;;;;;;;22.55;14.18;;;;;;;9.62;76.45;100832.41;4943016;28;20038;-89
2022/04/22 04:59:59;;;;;;;24.10;14.05;;;;;;;9.70;76.47;100840.56;4935154;28;20054;-90
2022/04/22 05:02:25;;;;;;;30.23;14.18;;;;;;;9.55;76.93;100847.44;4968057;28;20043;-89
2022/04/22 05:04:50;;;;;;;28.70;14.65;;;;;;;9.51;77.01;100850.41;4943451;28;20094;-88
2022/04/22 05:07:20;;;;;;;25.60;14.80;;;;;;;9.29;77.90;100848.13;4943303;28;20104;-91
2022/04/22 05:09:46;;;;;;;29.52;14.32;;;;;;;9.51;77.04;100852.25;4934559;28;20266;-88
2022/04/22 05:12:11;;;;;;;31.03;14.93;;;;;;;9.31;77.57;100848.81;4953819;28;20062;-89
2022/04/22 05:14:37;;;;;;;28.73;15.07;;;;;;;9.27;77.90;100855.47;4948355;28;20270;-90
2022/04/22 05:17:03;;;;;;;29.23;14.07;;;;;;;9.38;77.99;100851.75;4936301;28;20046;-91
2022/04/22 05:19:31;;;;;;;22.08;12.90;;;;;;;9.58;76.94;100852.50;4930566;29;20035;-89
2022/04/22 05:21:56;;;;;;;25.33;13.50;;;;;;;9.65;77.06;100849.06;4957677;28;20038;-89
2022/04/22 05:24:25;;;;;;;24.95;13.45;;;;;;;9.81;76.08;100853.78;4946887;29;20127;-89
2022/04/22 05:26:50;;;;;;;24.15;12.82;;;;;;;9.94;75.53;100861.47;4922720;29;20035;-89
2022/04/22 05:34:46;;;;;;;23.98;13.45;;;;;;;10.03;74.85;100854.34;4943228;28;20074;-90
2022/04/22 05:37:14;;;;;;;23.15;13.30;;;;;;;10.02;75.23;100860.69;4950915;29;20029;-90
2022/04/22 05:39:43;;;;;;;37.42;26.60;;;;;;;10.06;75.37;100870.16;4924116;28;20134;-89
2022/04/22 05:42:08;;;;;;;25.65;17.63;;;;;;;10.18;74.32;100865.38;4953848;28;20034;-88
2022/04/22 05:44:34;;;;;;;20.88;12.63;;;;;;;10.46;73.27;100866.19;4917969;29;20215;-90
2022/04/22 05:46:59;;;;;;;22.88;12.90;;;;;;;10.63;72.53;100851.88;4927277;28;20129;-89
2022/04/22 05:49:25;;;;;;;23.02;12.70;;;;;;;10.85;72.29;100884.63;4926200;29;20429;-90
2022/04/22 05:51:51;;;;;;;29.15;13.98;;;;;;;10.93;72.29;100868.53;4946238;28;20364;-90
2022/04/22 05:54:16;;;;;;;19.83;12.75;;;;;;;11.16;70.92;100867.00;4956464;28;20050;-90
2022/04/22 05:56:42;;;;;;;27.70;13.98;;;;;;;11.44;70.43;100872.19;4986273;28;20030;-90
2022/04/22 05:59:09;;;;;;;25.42;12.70;;;;;;;11.49;69.28;100853.69;4966763;28;20098;-89
2022/04/22 06:01:34;;;;;;;18.27;12.23;;;;;;;11.19;70.29;100881.97;4955757;28;20487;-91
2022/04/22 06:04:00;;;;;;;25.25;13.35;;;;;;;11.07;70.59;100878.72;4947032;29;20050;-91
2022/04/22 06:06:25;;;;;;;20.53;13.17;;;;;;;11.39;70.16;100879.91;4938053;28;20385;-88
2022/04/22 06:11:35;;;;;;;23.52;11.43;;;;;;;11.48;68.18;100854.72;4971558;28;20492;-91
2022/04/22 06:14:03;;;;;;;16.00;10.13;;;;;;;11.15;68.29;100848.34;4971522;28;20055;-89
2022/04/22 06:16:28;;;;;;;15.15;10.15;;;;;;;11.56;67.02;100857.41;4947456;28;20035;-90
2022/04/22 06:18:54;;;;;;;17.77;10.60;;;;;;;11.72;66.64;100872.81;4963016;29;20083;-90
2022/04/22 06:21:19;;;;;;;15.00;10.35;;;;;;;11.82;65.91;100875.34;4959311;28;20035;-90
2022/04/22 06:23:45;;;;;;;16.60;9.88;;;;;;;11.96;65.90;100869.41;4968099;28;20040;-89
2022/04/22 06:26:14;;;;;;;16.33;11.00;;;;;;;12.03;65.86;100881.19;4973071;28;20408;-88
2022/04/22 06:28:39;;;;;;;18.95;11.27;;;;;;;12.10;65.94;100883.22;4947955;28;20034;-89
2022/04/22 06:31:05;;;;;;;18.17;11.40;;;;;;;12.18;65.70;100873.28;4937446;29;20023;-90
2022/04/22 06:33:33;;;;;;;19.00;10.80;;;;;;;12.10;65.10;100869.72;4959357;28;20583;-88
2022/04/22 06:36:00;;;;;;;16.75;9.40;;;;;;;12.15;64.36;100873.63;4922222;29;20102;-90
2022/04/22 06:38:26;;;;;;;17.17;9.95;;;;;;;12.06;64.96;100862.97;4931701;28;20031;-90
2022/04/22 06:46:23;;;;;;;18.70;11.98;;;;;;;11.85;66.69;100877.75;4939712;28;20042;-90
2022/04/22 06:48:49;;;;;;;14.45;10.07;;;;;;;11.91;66.47;100893.25;4947033;29;20118;-91
2022/04/22 06:51:17;;;;;;;16.30;10.35;;;;;;;11.38;67.50;100902.47;4936261;28;20153;-90
2022/04/22 06:53:42;;;;;;;18.48;11.07;;;;;;;11.23;69.37;100910.28;4945861;28;20025;-89
2022/04/22 06:56:08;;;;;;;16.08;10.90;;;;;;;11.25;69.84;100910.13;4924407;28;20034;-88
2022/04/22 06:58:37;;;;;;;16.27;11.50;;;;;;;11.25;70.03;100908.25;4947520;28;20070;-89
2022/04/22 07:01:03;;;;;;;18.20;12.07;;;;;;;11.34;70.44;100922.63;4936463;29;20066;-90
2022/04/22 07:03:28;;;;;;;18.42;11.68;;;;;;;11.24;70.51;100905.72;4959550;28;20054;-90
2022/04/22 07:05:54;;;;;;;16.45;11.60;;;;;;;11.41;69.69;100896.75;4942312;28;20141;-90
2022/04/22 07:08:20;;;;;;;16.90;11.55;;;;;;;11.47;69.73;100885.34;4917192;28;20368;-91
2022/04/22 07:10:49;;;;;;;19.33;11.80;;;;;;;11.45;69.84;100891.88;4955027;28;20038;-89
2022/04/22 07:13:16;;;;;;;18.38;12.65;;;;;;;11.45;70.56;100879.28;4962106;28;20035;-90
2022/04/22 07:15:45;;;;;;;19.75;12.90;;;;;;;11.24;71.39;100878.81;4975491;28;20105;-91
2022/04/22 07:18:14;;;;;;;21.00;12.85;;;;;;;11.36;71.83;100897.22;4952163;28;20050;-91
2022/04/22 07:20:40;;;;;;;22.48;13.70;;;;;;;10.77;73.17;100897.03;4921253;29;20109;-91
2022/04/22 07:23:06;;;;;;;19.33;13.85;;;;;;;10.70;74.21;100920.16;4940617;29;20385;-91
2022/04/22 07:25:31;;;;;;;22.20;14.00;;;;;;;10.52;74.84;100922.03;4952797;28;20086;-90
2022/04/22 07:27:58;;;;;;;20.60;13.20;;;;;;;10.41;74.56;100920.41;4920202;28;20034;-90
2022/04/22 07:30:24;;;;;;;21.10;13.20;;;;;;;10.52;74.98;100939.00;4942487;29;20027;-92
2022/04/22 07:32:50;;;;;;;20.48;14.30;;;;;;;10.41;74.75;100957.19;4960899;28;20027;-91
2022/04/22 07:35:17;;;;;;;19.73;11.95;;;;;;;10.35;74.86;100964.03;4938636;28;20085;-90
2022/04/22 07:37:45;;;;;;;18.63;11.85;;;;;;;10.41;74.42;100957.19;4937199;28;20031;-89
2022/04/22 07:40:11;;;;;;;19.20;12.82;;;;;;;10.50;74.54;100950.91;4958839;28;20025;-90
2022/04/22 07:42:37;;;;;;;19.08;12.45;;;;;;;10.56;74.67;100966.44;4952195;28;20097;-93
2022/04/22 07:47:48;;;;;;;19.75;12.70;;;;;;;10.62;75.43;100965.78;4948490;28;20057;-91
2022/04/22 07:50:14;;;;;;;18.95;12.07;;;;;;;10.59;75.03;100944.59;4935920;29;20488;-91
2022/04/22 07:52:40;;;;;;;18.88;11.50;;;;;;;10.76;74.48;100957.19;4936429;28;20027;-91
2022/04/22 07:55:06;;;;;;;19.05;12.80;;;;;;;10.85;74.89;100968.03;4923137;29;20475;-90
2022/04/22 07:57:31;;;;;;;19.02;12.32;;;;;;;10.59;75.93;100971.50;4944417;28;20046;-90
2022/04/22 07:59:57;;;;;;;19.95;13.93;;;;;;;10.37;77.33;100974.59;4968375;28;20038;-90
2022/04/22 08:02:25;;;;;;;23.05;14.50;;;;;;;10.38;78.78;100987.91;4938279;28;20038;-89
2022/04/22 08:04:51;;;;;;;21.23;13.98;;;;;;;10.14;78.88;100988.47;4935311;28;20030;-88
2022/04/22 08:07:18;;;;;;;22.77;16.10;;;;;;;9.90;79.73;100991.66;4972412;28;20031;-88
2022/04/22 08:09:49;;;;;;;23.10;15.30;;;;;;;10.14;79.28;100983.91;4965344;28;20027;-88
2022/04/22 08:12:14;;;;;;;25.98;16.55;;;;;;;10.22;80.35;100985.00;4923030;29;20036;-88
2022/04/22 08:14:40;;;;;;;27.08;16.73;;;;;;;10.34;79.91;100984.66;4947108;29;20086;-87
2022/04/22 08:17:06;;;;;;;21.90;14.80;;;;;;;10.52;78.78;100970.41;4941865;28;20093;-88
2022/04/22 08:19:34;;;;;;;26.58;17.27;;;;;;;10.45;78.95;100953.19;4938503;28;20223;-88
2022/04/22 08:22:00;;;;;;;31.33;19.88;;;;;;;10.62;78.91;100968.47;4975983;28;20411;-89
2022/04/22 08:24:25;;;;;;;41.80;24.58;;;;;;;10.77;78.71;100964.25;4967458;28;20130;-89
2022/04/22 08:26:54;;;;;;;45.70;26.30;;;;;;;10.87;78.51;100960.66;4939964;28;20029;-88
2022/04/22 08:29:24;;;;;;;41.55;28.20;;;;;;;10.95;78.60;100950.78;4933801;28;20455;-88
2022/04/22 08:31:52;;;;;;;48.83;27.98;;;;;;;11.28;77.96;100959.06;4954871;28;20031;-88
2022/04/22 08:34:18;;;;;;;50.38;30.65;;;;;;;11.30;78.88;100965.16;4950225;28;20109;-89
2022/04/22 08:36:45;;;;;;;53.25;31.67;;;;;;;11.00;79.24;100953.00;4956127;28;20031;-89
2022/04/22 08:39:11;;;;;;;48.85;31.98;;;;;;;11.23;79.57;100976.72;4949423;28;20038;-88
2022/04/22 08:41:39;;;;;;;41.15;29.23;;;;;;;11.20;78.49;100970.63;4972799;28;20049;-89
2022/04/22 08:44:05;;;;;;;45.08;29.50;;;;;;;11.25;78.53;100972.88;4964320;28;20043;-88
2022/04/22 08:51:59;;;;;;;51.78;31.27;;;;;;;11.35;77.54;100968.22;4945769;28;20517;-87
2022/04/22 08:54:26;;;;;;;49.95;32.22;;;;;;;11.40;77.96;100973.13;4926080;29;20086;-89
2022/04/22 08:56:52;;;;;;;48.05;32.10;;;;;;;11.53;77.77;100970.84;4925729;28;20118;-89
2022/04/22 08:59:18;;;;;;;48.38;33.90;;;;;;;11.68;76.83;100956.78;4931109;29;20023;-89
2022/04/22 09:01:43;;;;;;;46.72;33.65;;;;;;;11.61;75.95;100925.13;4940039;28;20518;-89
2022/04/22 09:04:09;;;;;;;50.53;34.38;;;;;;;11.91;75.73;100947.16;4965736;28;20031;-90
2022/04/22 09:06:35;;;;;;;54.15;36.60;;;;;;;12.02;75.24;100932.56;4966240;28;20514;-89
2022/04/22 09:09:02;;;;;;;64.10;41.55;;;;;;;12.00;75.50;100921.91;4976973;28;20122;-88
2022/04/22 09:11:30;;;;;;;69.53;47.08;;;;;;;12.16;74.49;100925.69;4969500;28;20034;-88
2022/04/22 09:14:00;;;;;;;71.72;48.40;;;;;;;12.34;75.66;100922.84;4945799;29;20032;-88
2022/04/22 09:16:26;;;;;;;62.60;44.45;;;;;;;12.35;74.28;100911.91;4923256;28;20054;-89
2022/04/22 09:18:59;;;;;;;64.15;45.53;;;;;;;12.51;74.78;100900.28;4932131;28;20035;-87
2022/04/22 09:21:25;;;;;;;52.13;38.35;;;;;;;12.56;74.75;100897.09;4956021;28;20031;-89
2022/04/22 09:23:50;;;;;;;49.90;34.33;;;;;;;12.60;74.13;100875.00;4965967;28;20035;-89
2022/04/22 09:26:23;;;;;;;53.53;35.30;;;;;;;12.96;73.34;100882.72;4921129;28;20034;-91
2022/04/22 09:29:02;;;;;;;50.88;34.38;;;;;;;12.96;73.99;100861.13;4963762;28;20471;-89
2022/04/22 09:31:28;;;;;;;44.75;31.92;;;;;;;13.30;73.45;100863.63;4976519;28;20030;-89
2022/04/22 09:33:54;;;;;;;40.65;31.05;;;;;;;13.28;72.45;100835.94;4939145;28;20073;-87
2022/04/22 09:45:04;;;;;;;32.47;23.75;;;;;;;13.98;69.41;100831.56;4949837;28;20045;-89
2022/04/22 09:47:31;;;;;;;35.90;24.05;;;;;;;14.03;68.68;100831.00;4951777;28;20448;-88
2022/04/22 09:49:58;;;;;;;34.45;23.75;;;;;;;14.12;68.76;100805.59;4960340;28;20512;-89
2022/04/22 09:52:34;;;;;;;36.53;24.95;;;;;;;14.39;67.64;100820.41;4923024;28;20034;-90
2022/04/22 09:55:04;;;;;;;34.92;25.77;;;;;;;14.23;67.98;100804.31;4943672;29;20031;-89
2022/04/22 09:57:59;;;;;;;38.72;27.38;;;;;;;14.49;68.25;100809.34;4926138;28;20027;-88
2022/04/22 10:00:26;;;;;;;38.65;27.55;;;;;;;13.90;69.19;100791.88;4929421;29;20044;-90
2022/04/22 10:02:52;;;;;;;42.15;26.27;;;;;;;14.20;68.55;100783.06;4937364;28;20041;-89
2022/04/22 10:05:21;;;;;;;;;;;;;;;13.84;67.83;100743.13;4941332;28;20023;-88
2022/04/22 10:07:50;;;;;;;26.52;18.60;;;;;;;13.06;69.21;100713.34;4967772;28;19932;-88
2022/04/22 10:10:15;;;;;;;34.53;21.17;;;;;;;12.62;71.90;100696.84;4922199;29;20050;-90
2022/04/22 10:12:41;;;;;;;26.15;16.58;;;;;;;12.35;70.45;100696.22;4934473;28;20031;-89
2022/04/22 10:15:09;;;;;;;23.20;14.38;;;;;;;12.49;70.07;100694.66;4942812;29;20523;-90
2022/04/22 10:17:37;;;;;;;21.63;14.45;;;;;;;12.63;69.28;100737.09;4942180;28;20122;-89
2022/04/22 10:20:05;;;;;;;23.40;14.43;;;;;;;13.02;68.49;100757.91;4966877;28;20030;-88
2022/04/22 10:22:31;;;;;;;23.73;15.68;;;;;;;13.06;67.29;100779.97;4937517;28;20023;-89
2022/04/22 10:24:57;;;;;;;22.58;15.48;;;;;;;13.25;66.68;100773.31;4933218;28;20455;-89
2022/04/22 10:27:33;;;;;;;21.75;15.07;;;;;;;13.39;67.91;100782.56;4934768;28;20034;-89
2022/04/22 10:29:59;;;;;;;22.25;15.23;;;;;;;13.59;65.54;100775.72;4960283;28;20037;-90
2022/04/22 10:32:25;;;;;;;23.77;16.25;;;;;;;13.67;65.40;100772.97;4925838;28;20030;-89
2022/04/22 10:34:56;;;;;;;35.15;16.73;;;;;;;13.54;65.66;100777.28;4948838;28;20440;-89
2022/04/22 10:37:31;;;;;;;26.80;16.98;;;;;;;13.12;67.15;100773.88;4949638;28;20066;-89
2022/04/22 10:39:57;;;;;;;24.75;16.58;;;;;;;13.36;66.76;100780.22;4943959;29;20051;-87
2022/04/22 10:42:35;;;;;;;20.90;16.65;;;;;;;13.37;67.17;100800.78;4959233;28;20018;-90
2022/04/22 10:47:48;;;;;;;22.15;15.45;;;;;;;13.96;64.76;100809.25;4938607;28;20093;-89
2022/04/22 10:50:33;;;;;;;;;;;;;;;14.24;63.62;100800.59;4941209;29;20031;-89
2022/04/22 10:53:24;;;;;;;19.40;14.07;;;;;;;13.89;64.30;100808.28;4930970;29;19918;-89
2022/04/22 10:55:50;;;;;;;24.50;14.60;;;;;;;14.12;64.27;100802.91;4938762;29;20035;-87
2022/04/22 10:58:21;;;;;;;22.50;14.02;;;;;;;14.22;63.91;100802.66;4963836;28;20027;-89
2022/04/22 11:00:50;;;;;;;18.25;13.35;;;;;;;14.06;63.85;100803.59;4935918;28;20035;-87
2022/04/22 11:03:19;;;;;;;19.75;14.07;;;;;;;14.00;63.78;100805.19;4962134;28;20026;-88
2022/04/22 11:05:47;;;;;;;22.45;13.93;;;;;;;14.24;64.16;100800.59;4938563;29;20094;-87
2022/04/22 11:08:28;;;;;;;19.83;13.77;;;;;;;14.28;63.46;100774.88;4958749;28;20121;-90
2022/04/22 11:10:53;;;;;;;21.60;14.10;;;;;;;14.70;62.50;100796.00;4917429;29;20059;-89
2022/04/22 11:13:39;;;;;;;17.55;12.85;;;;;;;15.07;61.60;100791.50;4939955;29;20111;-88
2022/04/22 11:16:16;;;;;;;19.65;11.52;;;;;;;15.32;60.76;100789.34;4937225;29;20031;-88
2022/04/22 11:18:43;;;;;;;17.65;11.77;;;;;;;15.37;59.59;100781.50;4960638;28;20071;-89
2022/04/22 11:21:16;;;;;;;21.40;11.20;;;;;;;15.67;58.53;100786.03;4955592;28;20506;-88
2022/04/22 11:23:45;;;;;;;16.52;11.27;;;;;;;15.61;58.45;100772.19;4941331;29;20039;-87
2022/04/22 11:26:22;;;;;;;16.63;11.93;;;;;;;15.55;58.86;100775.66;4920417;29;20023;-89
2022/04/22 11:28:48;;;;;;;16.55;12.07;;;;;;;15.49;58.98;100786.44;4946733;28;20031;-88
2022/04/22 11:31:14;;;;;;;17.75;11.55;;;;;;;15.61;59.21;100787.59;4939425;28;20034;-88
2022/04/22 11:34:02;;;;;;;16.35;11.30;;;;;;;15.72;58.54;100787.13;4914898;28;20051;-90
2022/04/22 11:36:28;;;;;;;17.17;11.80;;;;;;;15.77;58.68;100781.97;4936070;28;20066;-91
2022/04/22 11:38:54;;;;;;;19.95;12.32;;;;;;;15.86;59.05;100779.16;4927331;29;20465;-90
2022/04/22 11:41:20;;;;;;;16.73;12.15;;;;;;;15.74;59.19;100785.09;4932764;28;20032;-90
2022/04/22 11:43:46;;;;;;;18.85;12.27;;;;;;;15.46;59.73;100784.94;4944407;28;20081;-90
2022/04/22 11:46:14;;;;;;;18.08;12.48;;;;;;;15.63;59.76;100775.53;4939238;28;20035;-89
2022/04/22 11:48:50;;;;;;;17.35;10.70;;;;;;;15.66;58.39;100790.56;4927499;28;20032;-89
2022/04/22 11:51:19;;;;;;;;;;;;;;;15.83;58.06;100774.97;4938683;28;20033;-88
2022/04/22 11:53:46;;;;;;;18.08;10.35;;;;;;;15.75;57.76;100770.50;4949754;28;20012;-87
2022/04/22 11:56:16;;;;;;;15.70;10.25;;;;;;;15.53;57.83;100766.88;4973507;28;20484;-87
2022/04/22 11:58:43;;;;;;;17.88;10.40;;;;;;;15.25;58.50;100772.19;4913579;28;20032;-89
2022/04/22 12:06:38;;;;;;;15.85;9.57;;;;;;;15.53;57.71;100766.06;4938867;28;20066;-90
2022/04/22 12:09:04;;;;;;;17.40;9.30;;;;;;;15.53;57.91;100766.88;4945330;29;20463;-89
2022/04/22 12:11:29;;;;;;;;;;;;;;;15.89;57.42;100759.78;4919058;28;20051;-88
2022/04/22 12:13:55;;;;;;;19.45;9.57;;;;;;;16.42;56.22;100763.81;4964666;28;19929;-88
2022/04/22 12:16:26;;;;;;;17.73;9.00;;;;;;;16.93;53.90;100727.44;4938606;28;20382;-89
2022/04/22 12:18:52;;;;;;;21.55;9.80;;;;;;;17.21;53.71;100745.53;4965696;28;20082;-90
2022/04/22 12:21:21;;;;;;;12.30;8.65;;;;;;;16.74;53.78;100738.97;4923560;28;20514;-88